sensor_id;sensor_type;location;lat;lon;timestamp;temperature;humidity
37886;DHT22;23726;52.520;13.434;2022-08-21T00:02:17;27.80;53.60
37886;DHT22;23726;52.520;13.434;2022-08-21T00:04:43;27.80;53.50
37886;DHT22;23726;52.520;13.434;2022-08-21T00:07:09;27.80;53.60
37886;DHT22;23726;52.520;13.434;2022-08-21T00:09:34;27.80;53.60
37886;DHT22;23726;52.520;13.434;2022-08-21T00:12:00;27.80;53.60
37886;DHT22;23726;52.520;13.434;2022-08-21T00:14:25;27.80;53.50
37886;DHT22;23726;52.520;13.434;2022-08-21T00:16:52;27.80;53.50
37886;DHT22;23726;52.520;13.434;2022-08-21T00:19:17;27.80;53.60
37886;DHT22;23726;52.520;13.434;2022-08-21T00:21:43;27.80;53.50
37886;DHT22;23726;52.520;13.434;2022-08-21T00:24:09;27.80;53.60
37886;DHT22;23726;52.520;13.434;2022-08-21T00:26:34;27.70;53.10
37886;DHT22;23726;52.520;13.434;2022-08-21T00:29:00;27.60;53.10
37886;DHT22;23726;52.520;13.434;2022-08-21T00:31:25;27.50;53.10
37886;DHT22;23726;52.520;13.434;2022-08-21T00:33:51;27.40;53.70
37886;DHT22;23726;52.520;13.434;2022-08-21T00:36:17;27.40;53.80
37886;DHT22;23726;52.520;13.434;2022-08-21T00:38:42;27.50;53.70
37886;DHT22;23726;52.520;13.434;2022-08-21T00:41:09;27.50;53.70
37886;DHT22;23726;52.520;13.434;2022-08-21T00:43:38;27.60;53.80
37886;DHT22;23726;52.520;13.434;2022-08-21T00:46:05;27.60;53.80
37886;DHT22;23726;52.520;13.434;2022-08-21T00:48:32;27.60;53.70
37886;DHT22;23726;52.520;13.434;2022-08-21T00:51:03;27.60;53.70
37886;DHT22;23726;52.520;13.434;2022-08-21T00:53:30;27.60;53.70
37886;DHT22;23726;52.520;13.434;2022-08-21T00:55:58;27.70;53.60
37886;DHT22;23726;52.520;13.434;2022-08-21T00:58:26;27.70;53.60
37886;DHT22;23726;52.520;13.434;2022-08-21T01:00:53;27.70;53.60
37886;DHT22;23726;52.520;13.434;2022-08-21T01:03:22;27.70;53.60
37886;DHT22;23726;52.520;13.434;2022-08-21T01:05:48;27.70;53.60
37886;DHT22;23726;52.520;13.434;2022-08-21T01:08:16;27.70;53.70
37886;DHT22;23726;52.520;13.434;2022-08-21T01:10:42;27.70;53.70
37886;DHT22;23726;52.520;13.434;2022-08-21T01:13:09;27.60;54.20
37886;DHT22;23726;52.520;13.434;2022-08-21T01:15:39;27.50;53.70
37886;DHT22;23726;52.520;13.434;2022-08-21T01:18:09;27.50;53.60
37886;DHT22;23726;52.520;13.434;2022-08-21T01:20:37;27.40;53.70
37886;DHT22;23726;52.520;13.434;2022-08-21T01:23:04;27.50;53.70
37886;DHT22;23726;52.520;13.434;2022-08-21T01:25:31;27.40;53.80
37886;DHT22;23726;52.520;13.434;2022-08-21T01:27:59;27.40;53.90
37886;DHT22;23726;52.520;13.434;2022-08-21T01:30:27;27.40;54.30
37886;DHT22;23726;52.520;13.434;2022-08-21T01:32:55;27.40;53.80
37886;DHT22;23726;52.520;13.434;2022-08-21T01:35:21;27.30;53.60
37886;DHT22;23726;52.520;13.434;2022-08-21T01:37:48;27.30;54.10
37886;DHT22;23726;52.520;13.434;2022-08-21T01:40:15;27.30;53.60
37886;DHT22;23726;52.520;13.434;2022-08-21T01:42:43;27.30;53.50
37886;DHT22;23726;52.520;13.434;2022-08-21T01:45:11;27.30;53.50
37886;DHT22;23726;52.520;13.434;2022-08-21T01:47:38;27.20;53.50
37886;DHT22;23726;52.520;13.434;2022-08-21T01:50:06;27.20;54.00
37886;DHT22;23726;52.520;13.434;2022-08-21T01:52:32;27.10;53.20
37886;DHT22;23726;52.520;13.434;2022-08-21T01:54:58;27.10;53.60
37886;DHT22;23726;52.520;13.434;2022-08-21T01:57:24;27.10;53.30
37886;DHT22;23726;52.520;13.434;2022-08-21T01:59:50;27.10;53.30
37886;DHT22;23726;52.520;13.434;2022-08-21T02:02:16;27.10;53.20
37886;DHT22;23726;52.520;13.434;2022-08-21T02:04:42;27.00;53.20
37886;DHT22;23726;52.520;13.434;2022-08-21T02:07:07;27.00;53.20
37886;DHT22;23726;52.520;13.434;2022-08-21T02:09:33;27.10;53.20
37886;DHT22;23726;52.520;13.434;2022-08-21T02:11:59;27.10;52.80
37886;DHT22;23726;52.520;13.434;2022-08-21T02:14:25;27.10;52.70
37886;DHT22;23726;52.520;13.434;2022-08-21T02:16:50;27.10;52.80
37886;DHT22;23726;52.520;13.434;2022-08-21T02:19:16;27.00;52.90
37886;DHT22;23726;52.520;13.434;2022-08-21T02:21:42;27.00;52.60
37886;DHT22;23726;52.520;13.434;2022-08-21T02:24:09;27.10;52.30
37886;DHT22;23726;52.520;13.434;2022-08-21T02:26:35;27.10;52.20
37886;DHT22;23726;52.520;13.434;2022-08-21T02:29:01;27.10;52.30
37886;DHT22;23726;52.520;13.434;2022-08-21T02:31:26;27.10;52.10
37886;DHT22;23726;52.520;13.434;2022-08-21T02:33:52;27.10;52.30
37886;DHT22;23726;52.520;13.434;2022-08-21T02:36:18;27.10;52.00
37886;DHT22;23726;52.520;13.434;2022-08-21T02:38:44;27.10;51.90
37886;DHT22;23726;52.520;13.434;2022-08-21T02:41:17;27.00;52.00
37886;DHT22;23726;52.520;13.434;2022-08-21T02:43:42;27.00;52.00
37886;DHT22;23726;52.520;13.434;2022-08-21T02:46:11;27.00;51.80
37886;DHT22;23726;52.520;13.434;2022-08-21T02:48:38;27.00;52.00
37886;DHT22;23726;52.520;13.434;2022-08-21T02:51:15;27.00;51.90
37886;DHT22;23726;52.520;13.434;2022-08-21T02:53:42;27.00;51.50
37886;DHT22;23726;52.520;13.434;2022-08-21T02:56:11;27.00;51.30
37886;DHT22;23726;52.520;13.434;2022-08-21T02:58:44;27.00;51.70
37886;DHT22;23726;52.520;13.434;2022-08-21T03:01:11;27.00;51.20
37886;DHT22;23726;52.520;13.434;2022-08-21T03:03:39;27.00;51.20
37886;DHT22;23726;52.520;13.434;2022-08-21T03:06:07;27.00;51.30
37886;DHT22;23726;52.520;13.434;2022-08-21T03:08:34;27.00;51.00
37886;DHT22;23726;52.520;13.434;2022-08-21T03:11:00;27.00;51.30
37886;DHT22;23726;52.520;13.434;2022-08-21T03:13:27;27.00;50.90
37886;DHT22;23726;52.520;13.434;2022-08-21T03:15:53;27.00;50.90
37886;DHT22;23726;52.520;13.434;2022-08-21T03:18:19;27.00;51.70
37886;DHT22;23726;52.520;13.434;2022-08-21T03:20:46;27.00;50.80
37886;DHT22;23726;52.520;13.434;2022-08-21T03:23:12;27.00;50.80
37886;DHT22;23726;52.520;13.434;2022-08-21T03:25:39;27.00;50.70
37886;DHT22;23726;52.520;13.434;2022-08-21T03:28:06;26.90;51.00
37886;DHT22;23726;52.520;13.434;2022-08-21T03:30:33;26.90;50.90
37886;DHT22;23726;52.520;13.434;2022-08-21T03:33:00;26.90;50.90
37886;DHT22;23726;52.520;13.434;2022-08-21T03:35:27;26.80;50.60
37886;DHT22;23726;52.520;13.434;2022-08-21T03:37:54;26.80;50.70
37886;DHT22;23726;52.520;13.434;2022-08-21T03:40:21;26.80;50.90
37886;DHT22;23726;52.520;13.434;2022-08-21T03:42:47;26.80;50.70
37886;DHT22;23726;52.520;13.434;2022-08-21T03:45:14;26.80;50.30
37886;DHT22;23726;52.520;13.434;2022-08-21T03:48:00;26.80;50.20
37886;DHT22;23726;52.520;13.434;2022-08-21T03:50:28;26.90;50.10
37886;DHT22;23726;52.520;13.434;2022-08-21T03:52:54;26.90;50.30
37886;DHT22;23726;52.520;13.434;2022-08-21T03:55:20;26.90;50.40
37886;DHT22;23726;52.520;13.434;2022-08-21T03:57:45;26.80;50.10
37886;DHT22;23726;52.520;13.434;2022-08-21T04:00:13;26.80;50.30
37886;DHT22;23726;52.520;13.434;2022-08-21T04:02:40;26.80;50.00
37886;DHT22;23726;52.520;13.434;2022-08-21T04:05:06;26.80;49.90
37886;DHT22;23726;52.520;13.434;2022-08-21T04:07:32;26.80;50.00
37886;DHT22;23726;52.520;13.434;2022-08-21T04:09:57;26.80;49.80
37886;DHT22;23726;52.520;13.434;2022-08-21T04:12:23;26.80;50.10
37886;DHT22;23726;52.520;13.434;2022-08-21T04:14:49;26.80;49.90
37886;DHT22;23726;52.520;13.434;2022-08-21T04:17:16;26.80;49.60
37886;DHT22;23726;52.520;13.434;2022-08-21T04:19:42;26.80;49.70
37886;DHT22;23726;52.520;13.434;2022-08-21T04:22:08;26.80;49.50
37886;DHT22;23726;52.520;13.434;2022-08-21T04:24:33;26.80;49.60
37886;DHT22;23726;52.520;13.434;2022-08-21T04:27:01;26.80;49.30
37886;DHT22;23726;52.520;13.434;2022-08-21T04:29:26;26.80;49.20
37886;DHT22;23726;52.520;13.434;2022-08-21T04:31:52;26.80;49.10
37886;DHT22;23726;52.520;13.434;2022-08-21T04:34:19;26.70;49.10
37886;DHT22;23726;52.520;13.434;2022-08-21T04:36:44;26.70;49.80
37886;DHT22;23726;52.520;13.434;2022-08-21T04:39:10;26.60;49.60
37886;DHT22;23726;52.520;13.434;2022-08-21T04:41:36;26.60;49.80
37886;DHT22;23726;52.520;13.434;2022-08-21T04:44:02;26.60;49.40
37886;DHT22;23726;52.520;13.434;2022-08-21T04:46:28;26.70;49.40
37886;DHT22;23726;52.520;13.434;2022-08-21T04:48:54;26.70;49.00
37886;DHT22;23726;52.520;13.434;2022-08-21T04:51:25;26.70;49.20
37886;DHT22;23726;52.520;13.434;2022-08-21T04:56:30;26.70;49.30
37886;DHT22;23726;52.520;13.434;2022-08-21T04:58:59;26.70;48.70
37886;DHT22;23726;52.520;13.434;2022-08-21T05:01:29;26.70;48.60
37886;DHT22;23726;52.520;13.434;2022-08-21T05:03:58;26.70;48.90
37886;DHT22;23726;52.520;13.434;2022-08-21T05:06:25;26.70;48.70
37886;DHT22;23726;52.520;13.434;2022-08-21T05:08:53;26.70;48.60
37886;DHT22;23726;52.520;13.434;2022-08-21T05:11:20;26.70;48.70
37886;DHT22;23726;52.520;13.434;2022-08-21T05:13:47;26.70;48.30
37886;DHT22;23726;52.520;13.434;2022-08-21T05:16:13;26.70;48.90
37886;DHT22;23726;52.520;13.434;2022-08-21T05:18:39;26.70;48.60
37886;DHT22;23726;52.520;13.434;2022-08-21T05:21:05;26.70;48.50
37886;DHT22;23726;52.520;13.434;2022-08-21T05:23:31;26.70;48.40
37886;DHT22;23726;52.520;13.434;2022-08-21T05:25:57;26.60;48.30
37886;DHT22;23726;52.520;13.434;2022-08-21T05:28:23;26.60;48.20
37886;DHT22;23726;52.520;13.434;2022-08-21T05:30:49;26.60;48.20
37886;DHT22;23726;52.520;13.434;2022-08-21T05:33:14;26.70;48.30
37886;DHT22;23726;52.520;13.434;2022-08-21T05:35:41;26.60;48.30
37886;DHT22;23726;52.520;13.434;2022-08-21T05:38:07;26.60;48.30
37886;DHT22;23726;52.520;13.434;2022-08-21T05:40:32;26.60;49.00
37886;DHT22;23726;52.520;13.434;2022-08-21T05:42:58;26.60;48.50
37886;DHT22;23726;52.520;13.434;2022-08-21T05:45:33;26.60;48.20
37886;DHT22;23726;52.520;13.434;2022-08-21T05:48:09;26.60;48.10
37886;DHT22;23726;52.520;13.434;2022-08-21T05:50:35;26.60;48.50
37886;DHT22;23726;52.520;13.434;2022-08-21T05:53:00;26.60;48.20
37886;DHT22;23726;52.520;13.434;2022-08-21T05:55:26;26.60;48.80
37886;DHT22;23726;52.520;13.434;2022-08-21T05:57:51;26.60;48.30
37886;DHT22;23726;52.520;13.434;2022-08-21T06:00:17;26.60;48.20
37886;DHT22;23726;52.520;13.434;2022-08-21T06:02:44;26.60;48.00
37886;DHT22;23726;52.520;13.434;2022-08-21T06:05:09;26.60;48.40
37886;DHT22;23726;52.520;13.434;2022-08-21T06:07:35;26.60;48.40
37886;DHT22;23726;52.520;13.434;2022-08-21T06:10:02;26.60;48.30
37886;DHT22;23726;52.520;13.434;2022-08-21T06:12:28;26.60;48.30
37886;DHT22;23726;52.520;13.434;2022-08-21T06:14:53;26.60;48.30
37886;DHT22;23726;52.520;13.434;2022-08-21T06:17:19;26.50;48.30
37886;DHT22;23726;52.520;13.434;2022-08-21T06:19:45;26.50;48.10
37886;DHT22;23726;52.520;13.434;2022-08-21T06:22:10;26.50;48.10
37886;DHT22;23726;52.520;13.434;2022-08-21T06:24:37;26.50;48.50
37886;DHT22;23726;52.520;13.434;2022-08-21T06:27:06;26.50;48.40
37886;DHT22;23726;52.520;13.434;2022-08-21T06:29:33;26.50;48.20
37886;DHT22;23726;52.520;13.434;2022-08-21T06:31:58;26.50;48.20
37886;DHT22;23726;52.520;13.434;2022-08-21T06:34:24;26.50;47.80
37886;DHT22;23726;52.520;13.434;2022-08-21T06:36:50;26.50;47.80
37886;DHT22;23726;52.520;13.434;2022-08-21T06:39:15;26.50;48.10
37886;DHT22;23726;52.520;13.434;2022-08-21T06:41:42;26.50;48.20
37886;DHT22;23726;52.520;13.434;2022-08-21T06:44:08;26.50;48.00
37886;DHT22;23726;52.520;13.434;2022-08-21T06:46:34;26.50;47.90
37886;DHT22;23726;52.520;13.434;2022-08-21T06:49:00;26.50;48.00
37886;DHT22;23726;52.520;13.434;2022-08-21T06:51:26;26.50;48.10
37886;DHT22;23726;52.520;13.434;2022-08-21T06:53:52;26.50;48.10
37886;DHT22;23726;52.520;13.434;2022-08-21T06:56:18;26.50;47.90
37886;DHT22;23726;52.520;13.434;2022-08-21T06:58:45;26.50;47.90
37886;DHT22;23726;52.520;13.434;2022-08-21T07:01:11;26.50;47.90
37886;DHT22;23726;52.520;13.434;2022-08-21T07:03:39;26.50;47.80
37886;DHT22;23726;52.520;13.434;2022-08-21T07:06:07;26.50;47.80
37886;DHT22;23726;52.520;13.434;2022-08-21T07:08:33;26.50;47.70
37886;DHT22;23726;52.520;13.434;2022-08-21T07:11:00;26.50;47.60
37886;DHT22;23726;52.520;13.434;2022-08-21T07:13:27;26.50;47.70
37886;DHT22;23726;52.520;13.434;2022-08-21T07:15:53;26.50;47.50
37886;DHT22;23726;52.520;13.434;2022-08-21T07:18:18;26.50;47.50
37886;DHT22;23726;52.520;13.434;2022-08-21T07:20:44;26.50;47.60
37886;DHT22;23726;52.520;13.434;2022-08-21T07:23:18;26.60;47.50
37886;DHT22;23726;52.520;13.434;2022-08-21T07:25:45;26.50;47.70
37886;DHT22;23726;52.520;13.434;2022-08-21T07:28:11;26.50;47.70
37886;DHT22;23726;52.520;13.434;2022-08-21T07:30:36;26.40;47.40
37886;DHT22;23726;52.520;13.434;2022-08-21T07:33:03;26.30;47.40
37886;DHT22;23726;52.520;13.434;2022-08-21T07:35:28;26.30;47.80
37886;DHT22;23726;52.520;13.434;2022-08-21T07:37:54;26.40;47.50
37886;DHT22;23726;52.520;13.434;2022-08-21T07:40:19;26.40;47.50
37886;DHT22;23726;52.520;13.434;2022-08-21T07:42:48;26.50;47.20
37886;DHT22;23726;52.520;13.434;2022-08-21T07:45:22;26.50;46.90
37886;DHT22;23726;52.520;13.434;2022-08-21T07:47:50;26.50;46.80
37886;DHT22;23726;52.520;13.434;2022-08-21T07:50:15;26.50;46.70
37886;DHT22;23726;52.520;13.434;2022-08-21T07:52:42;26.50;47.00
37886;DHT22;23726;52.520;13.434;2022-08-21T07:55:13;26.50;46.70
37886;DHT22;23726;52.520;13.434;2022-08-21T07:57:40;26.40;46.70
37886;DHT22;23726;52.520;13.434;2022-08-21T08:00:09;26.40;46.60
37886;DHT22;23726;52.520;13.434;2022-08-21T08:02:35;26.40;46.50
37886;DHT22;23726;52.520;13.434;2022-08-21T08:05:06;26.40;46.30
37886;DHT22;23726;52.520;13.434;2022-08-21T08:07:32;26.40;46.30
37886;DHT22;23726;52.520;13.434;2022-08-21T08:09:58;26.50;46.70
37886;DHT22;23726;52.520;13.434;2022-08-21T08:12:24;26.50;45.90
37886;DHT22;23726;52.520;13.434;2022-08-21T08:14:57;26.50;46.00
37886;DHT22;23726;52.520;13.434;2022-08-21T08:17:24;26.40;45.20
37886;DHT22;23726;52.520;13.434;2022-08-21T08:19:50;26.40;45.60
37886;DHT22;23726;52.520;13.434;2022-08-21T08:22:18;26.50;45.30
37886;DHT22;23726;52.520;13.434;2022-08-21T08:24:51;26.50;45.30
37886;DHT22;23726;52.520;13.434;2022-08-21T08:27:17;26.50;45.10
37886;DHT22;23726;52.520;13.434;2022-08-21T08:29:44;26.40;45.10
37886;DHT22;23726;52.520;13.434;2022-08-21T08:32:09;26.40;44.90
37886;DHT22;23726;52.520;13.434;2022-08-21T08:34:36;26.40;44.40
37886;DHT22;23726;52.520;13.434;2022-08-21T08:37:02;26.40;44.30
37886;DHT22;23726;52.520;13.434;2022-08-21T08:39:28;26.30;44.10
37886;DHT22;23726;52.520;13.434;2022-08-21T08:42:01;26.30;43.10
37886;DHT22;23726;52.520;13.434;2022-08-21T08:44:30;26.20;42.80
37886;DHT22;23726;52.520;13.434;2022-08-21T08:46:56;26.20;43.70
37886;DHT22;23726;52.520;13.434;2022-08-21T08:49:37;26.30;43.50
37886;DHT22;23726;52.520;13.434;2022-08-21T08:52:28;26.30;43.70
37886;DHT22;23726;52.520;13.434;2022-08-21T08:55:08;26.30;43.70
37886;DHT22;23726;52.520;13.434;2022-08-21T08:57:35;26.40;43.60
37886;DHT22;23726;52.520;13.434;2022-08-21T09:00:05;26.40;43.50
37886;DHT22;23726;52.520;13.434;2022-08-21T09:02:32;26.30;43.80
37886;DHT22;23726;52.520;13.434;2022-08-21T09:04:59;26.40;43.80
37886;DHT22;23726;52.520;13.434;2022-08-21T09:07:39;26.40;43.90
37886;DHT22;23726;52.520;13.434;2022-08-21T09:10:10;26.40;43.50
37886;DHT22;23726;52.520;13.434;2022-08-21T09:12:48;26.40;43.60
37886;DHT22;23726;52.520;13.434;2022-08-21T09:18:25;26.40;43.60
37886;DHT22;23726;52.520;13.434;2022-08-21T09:26:57;26.40;43.20
37886;DHT22;23726;52.520;13.434;2022-08-21T09:29:30;26.50;43.30
37886;DHT22;23726;52.520;13.434;2022-08-21T09:31:56;26.40;43.00
37886;DHT22;23726;52.520;13.434;2022-08-21T09:34:28;26.40;43.00
37886;DHT22;23726;52.520;13.434;2022-08-21T09:36:55;26.40;43.30
37886;DHT22;23726;52.520;13.434;2022-08-21T09:39:30;26.40;42.90
37886;DHT22;23726;52.520;13.434;2022-08-21T09:41:58;26.40;42.90
37886;DHT22;23726;52.520;13.434;2022-08-21T09:44:28;26.40;42.50
37886;DHT22;23726;52.520;13.434;2022-08-21T09:46:54;26.40;42.80
37886;DHT22;23726;52.520;13.434;2022-08-21T09:49:29;26.40;42.90
37886;DHT22;23726;52.520;13.434;2022-08-21T09:51:55;26.40;43.00
37886;DHT22;23726;52.520;13.434;2022-08-21T09:54:28;26.40;42.70
37886;DHT22;23726;52.520;13.434;2022-08-21T09:57:22;26.40;42.20
37886;DHT22;23726;52.520;13.434;2022-08-21T10:00:25;26.40;42.50
37886;DHT22;23726;52.520;13.434;2022-08-21T10:02:51;26.40;42.60
37886;DHT22;23726;52.520;13.434;2022-08-21T10:05:24;26.50;42.80
37886;DHT22;23726;52.520;13.434;2022-08-21T10:07:50;26.50;42.50
37886;DHT22;23726;52.520;13.434;2022-08-21T10:10:26;26.50;42.50
37886;DHT22;23726;52.520;13.434;2022-08-21T10:13:38;26.50;42.20
37886;DHT22;23726;52.520;13.434;2022-08-21T10:16:06;26.60;42.20
37886;DHT22;23726;52.520;13.434;2022-08-21T10:18:41;26.50;42.40
37886;DHT22;23726;52.520;13.434;2022-08-21T10:21:18;26.50;42.20
37886;DHT22;23726;52.520;13.434;2022-08-21T10:29:53;26.60;42.40
37886;DHT22;23726;52.520;13.434;2022-08-21T10:35:13;26.70;42.80
37886;DHT22;23726;52.520;13.434;2022-08-21T10:40:48;26.80;42.80
37886;DHT22;23726;52.520;13.434;2022-08-21T10:49:24;26.80;43.00
37886;DHT22;23726;52.520;13.434;2022-08-21T10:52:22;26.90;43.10
37886;DHT22;23726;52.520;13.434;2022-08-21T10:55:20;26.90;43.20
37886;DHT22;23726;52.520;13.434;2022-08-21T10:58:10;26.90;43.30
37886;DHT22;23726;52.520;13.434;2022-08-21T11:00:51;26.90;43.30
37886;DHT22;23726;52.520;13.434;2022-08-21T11:03:33;26.90;43.30
37886;DHT22;23726;52.520;13.434;2022-08-21T11:06:25;26.90;43.40
37886;DHT22;23726;52.520;13.434;2022-08-21T11:08:52;27.00;43.50
37886;DHT22;23726;52.520;13.434;2022-08-21T11:11:32;27.00;43.60
37886;DHT22;23726;52.520;13.434;2022-08-21T11:14:08;27.00;43.70
37886;DHT22;23726;52.520;13.434;2022-08-21T11:16:42;27.00;43.70
37886;DHT22;23726;52.520;13.434;2022-08-21T11:19:24;27.00;43.70
37886;DHT22;23726;52.520;13.434;2022-08-21T11:22:18;27.10;43.70
37886;DHT22;23726;52.520;13.434;2022-08-21T11:25:06;27.10;43.80
37886;DHT22;23726;52.520;13.434;2022-08-21T11:27:41;27.10;44.40
37886;DHT22;23726;52.520;13.434;2022-08-21T11:30:09;27.10;44.00
37886;DHT22;23726;52.520;13.434;2022-08-21T11:38:35;27.10;44.10
37886;DHT22;23726;52.520;13.434;2022-08-21T11:43:53;27.10;43.80
37886;DHT22;23726;52.520;13.434;2022-08-21T11:46:35;27.10;43.90
37886;DHT22;23726;52.520;13.434;2022-08-21T11:52:10;27.10;44.20
37886;DHT22;23726;52.520;13.434;2022-08-21T11:54:46;27.10;44.00
37886;DHT22;23726;52.520;13.434;2022-08-21T11:57:40;27.10;43.60
37886;DHT22;23726;52.520;13.434;2022-08-21T12:00:29;27.10;43.70
37886;DHT22;23726;52.520;13.434;2022-08-21T12:02:59;27.10;43.70
37886;DHT22;23726;52.520;13.434;2022-08-21T12:05:33;27.10;43.30
37886;DHT22;23726;52.520;13.434;2022-08-21T12:08:10;27.10;43.40
37886;DHT22;23726;52.520;13.434;2022-08-21T12:10:45;27.10;43.40
37886;DHT22;23726;52.520;13.434;2022-08-21T12:13:27;27.20;43.60
37886;DHT22;23726;52.520;13.434;2022-08-21T12:15:52;27.20;43.60
37886;DHT22;23726;52.520;13.434;2022-08-21T12:18:28;27.20;43.60
37886;DHT22;23726;52.520;13.434;2022-08-21T12:21:22;27.20;43.70
37886;DHT22;23726;52.520;13.434;2022-08-21T12:23:57;27.20;42.80
37886;DHT22;23726;52.520;13.434;2022-08-21T12:29:30;27.20;42.80
37886;DHT22;23726;52.520;13.434;2022-08-21T12:32:00;27.20;42.90
37886;DHT22;23726;52.520;13.434;2022-08-21T12:34:40;27.20;41.70
37886;DHT22;23726;52.520;13.434;2022-08-21T12:37:20;27.20;40.50
37886;DHT22;23726;52.520;13.434;2022-08-21T12:39:49;27.20;40.70
37886;DHT22;23726;52.520;13.434;2022-08-21T12:42:20;27.20;40.20
37886;DHT22;23726;52.520;13.434;2022-08-21T12:44:50;27.20;40.40
37886;DHT22;23726;52.520;13.434;2022-08-21T12:47:21;27.20;40.20
37886;DHT22;23726;52.520;13.434;2022-08-21T12:54:47;27.10;41.50
37886;DHT22;23726;52.520;13.434;2022-08-21T12:57:22;27.10;41.10
37886;DHT22;23726;52.520;13.434;2022-08-21T13:00:00;27.10;40.90
37886;DHT22;23726;52.520;13.434;2022-08-21T13:02:35;27.10;41.00
37886;DHT22;23726;52.520;13.434;2022-08-21T13:05:05;27.20;40.70
37886;DHT22;23726;52.520;13.434;2022-08-21T13:07:32;27.20;40.30
37886;DHT22;23726;52.520;13.434;2022-08-21T13:10:04;27.20;39.90
37886;DHT22;23726;52.520;13.434;2022-08-21T13:12:31;27.20;39.40
37886;DHT22;23726;52.520;13.434;2022-08-21T13:15:00;27.20;39.50
37886;DHT22;23726;52.520;13.434;2022-08-21T13:17:31;27.20;38.60
37886;DHT22;23726;52.520;13.434;2022-08-21T13:20:10;27.20;38.70
37886;DHT22;23726;52.520;13.434;2022-08-21T13:22:44;27.20;39.10
37886;DHT22;23726;52.520;13.434;2022-08-21T13:25:12;27.20;39.00
37886;DHT22;23726;52.520;13.434;2022-08-21T13:27:38;27.20;39.50
37886;DHT22;23726;52.520;13.434;2022-08-21T13:30:19;27.20;39.20
37886;DHT22;23726;52.520;13.434;2022-08-21T13:32:49;27.20;39.10
37886;DHT22;23726;52.520;13.434;2022-08-21T13:35:17;27.20;39.40
37886;DHT22;23726;52.520;13.434;2022-08-21T13:37:45;27.20;39.00
37886;DHT22;23726;52.520;13.434;2022-08-21T13:40:40;27.10;38.40
37886;DHT22;23726;52.520;13.434;2022-08-21T13:43:14;27.20;39.60
37886;DHT22;23726;52.520;13.434;2022-08-21T13:45:44;27.20;39.00
37886;DHT22;23726;52.520;13.434;2022-08-21T13:48:09;27.20;39.70
37886;DHT22;23726;52.520;13.434;2022-08-21T13:50:37;27.20;39.40
37886;DHT22;23726;52.520;13.434;2022-08-21T13:53:06;27.20;39.80
37886;DHT22;23726;52.520;13.434;2022-08-21T13:55:41;27.20;40.00
37886;DHT22;23726;52.520;13.434;2022-08-21T13:58:09;27.20;38.20
37886;DHT22;23726;52.520;13.434;2022-08-21T14:00:45;27.20;38.60
37886;DHT22;23726;52.520;13.434;2022-08-21T14:03:15;27.20;39.10
37886;DHT22;23726;52.520;13.434;2022-08-21T14:05:48;27.20;38.80
37886;DHT22;23726;52.520;13.434;2022-08-21T14:08:33;27.20;38.80
37886;DHT22;23726;52.520;13.434;2022-08-21T14:11:00;27.30;38.40
37886;DHT22;23726;52.520;13.434;2022-08-21T14:16:00;27.20;40.30
37886;DHT22;23726;52.520;13.434;2022-08-21T14:18:27;27.20;40.40
37886;DHT22;23726;52.520;13.434;2022-08-21T14:21:05;27.20;40.50
37886;DHT22;23726;52.520;13.434;2022-08-21T14:23:31;27.20;40.40
37886;DHT22;23726;52.520;13.434;2022-08-21T14:26:00;27.20;40.00
37886;DHT22;23726;52.520;13.434;2022-08-21T14:28:32;27.30;39.90
37886;DHT22;23726;52.520;13.434;2022-08-21T14:31:10;27.30;39.80
37886;DHT22;23726;52.520;13.434;2022-08-21T14:33:37;27.30;39.80
37886;DHT22;23726;52.520;13.434;2022-08-21T14:36:03;27.30;39.70
37886;DHT22;23726;52.520;13.434;2022-08-21T14:38:28;27.30;39.80
37886;DHT22;23726;52.520;13.434;2022-08-21T14:40:58;27.30;40.60
37886;DHT22;23726;52.520;13.434;2022-08-21T14:43:26;27.30;40.10
37886;DHT22;23726;52.520;13.434;2022-08-21T14:45:52;27.30;40.10
37886;DHT22;23726;52.520;13.434;2022-08-21T14:48:18;27.30;40.00
37886;DHT22;23726;52.520;13.434;2022-08-21T14:50:44;27.30;40.20
37886;DHT22;23726;52.520;13.434;2022-08-21T14:53:10;27.30;40.20
37886;DHT22;23726;52.520;13.434;2022-08-21T14:55:36;27.30;40.20
37886;DHT22;23726;52.520;13.434;2022-08-21T14:58:21;27.40;40.30
37886;DHT22;23726;52.520;13.434;2022-08-21T15:00:49;27.30;40.30
37886;DHT22;23726;52.520;13.434;2022-08-21T15:03:14;27.30;40.30
37886;DHT22;23726;52.520;13.434;2022-08-21T15:05:40;27.30;40.20
37886;DHT22;23726;52.520;13.434;2022-08-21T15:08:06;27.30;40.10
37886;DHT22;23726;52.520;13.434;2022-08-21T15:10:33;27.30;40.30
37886;DHT22;23726;52.520;13.434;2022-08-21T15:12:59;27.30;40.50
37886;DHT22;23726;52.520;13.434;2022-08-21T15:15:25;27.30;40.50
37886;DHT22;23726;52.520;13.434;2022-08-21T15:17:50;27.30;40.70
37886;DHT22;23726;52.520;13.434;2022-08-21T15:20:16;27.30;40.70
37886;DHT22;23726;52.520;13.434;2022-08-21T15:22:42;27.30;40.60
37886;DHT22;23726;52.520;13.434;2022-08-21T15:25:07;27.30;40.70
37886;DHT22;23726;52.520;13.434;2022-08-21T15:27:34;27.30;40.80
37886;DHT22;23726;52.520;13.434;2022-08-21T15:30:02;27.30;41.00
37886;DHT22;23726;52.520;13.434;2022-08-21T15:32:28;27.30;41.20
37886;DHT22;23726;52.520;13.434;2022-08-21T15:34:56;27.30;41.20
37886;DHT22;23726;52.520;13.434;2022-08-21T15:37:23;27.30;41.20
37886;DHT22;23726;52.520;13.434;2022-08-21T15:39:49;27.30;41.00
37886;DHT22;23726;52.520;13.434;2022-08-21T15:42:15;27.30;41.10
37886;DHT22;23726;52.520;13.434;2022-08-21T15:44:42;27.30;41.30
37886;DHT22;23726;52.520;13.434;2022-08-21T15:47:24;27.40;41.30
37886;DHT22;23726;52.520;13.434;2022-08-21T15:49:50;27.40;41.20
37886;DHT22;23726;52.520;13.434;2022-08-21T15:52:18;27.40;41.60
37886;DHT22;23726;52.520;13.434;2022-08-21T15:54:44;27.40;41.60
37886;DHT22;23726;52.520;13.434;2022-08-21T15:57:13;27.40;41.80
37886;DHT22;23726;52.520;13.434;2022-08-21T15:59:41;27.40;42.10
37886;DHT22;23726;52.520;13.434;2022-08-21T16:02:19;27.40;42.70
37886;DHT22;23726;52.520;13.434;2022-08-21T16:04:46;27.40;42.70
37886;DHT22;23726;52.520;13.434;2022-08-21T16:07:11;27.40;42.60
37886;DHT22;23726;52.520;13.434;2022-08-21T16:09:37;27.40;42.70
37886;DHT22;23726;52.520;13.434;2022-08-21T16:12:04;27.40;42.70
37886;DHT22;23726;52.520;13.434;2022-08-21T16:14:31;27.40;42.80
37886;DHT22;23726;52.520;13.434;2022-08-21T16:16:58;27.40;42.80
37886;DHT22;23726;52.520;13.434;2022-08-21T16:19:25;27.50;43.30
37886;DHT22;23726;52.520;13.434;2022-08-21T16:21:52;27.50;42.90